Allentown, New York
Current Conditions -  °F | °C
As of 6:18 PM on Wednesday 22 Oct 2014 (Local Time) from KELZ Reporting Station
Haze Haze  
Wind Chill: 35°   Ceiling: 100
Heat Index: 41°   Visibility: 1mi
Dew Point: 39°   Wind: 10mph
Humidity: 93%   Direction: 360°N
Pressure: 30.15"   Gusts: 17mph
Location:  42.08°N, 78.06°W
Report Text: KELZ 222218Z AUTO 36009G15KT 1SM BR VV001 05/04 A3015 RMK AO2 T00500039
Loading
Personal Weather Stations






























Interactive Weather Map New forecast layout! Learn more

10-Day Weather Forecast

Advertisements
Track Severe Weather on mobile